sensor_id;sensor_type;location;lat;lon;timestamp;temperature;humidity
8643;DHT22;4359;49.358;11.256;2024-02-26T00:00:35;2.50;99.90
8643;DHT22;4359;49.358;11.256;2024-02-26T00:03:01;2.40;99.90
8643;DHT22;4359;49.358;11.256;2024-02-26T00:05:26;2.20;99.90
8643;DHT22;4359;49.358;11.256;2024-02-26T00:07:52;2.10;99.90
8643;DHT22;4359;49.358;11.256;2024-02-26T00:10:19;2.00;99.90
8643;DHT22;4359;49.358;11.256;2024-02-26T00:12:44;1.90;99.90
8643;DHT22;4359;49.358;11.256;2024-02-26T00:15:10;1.90;99.90
8643;DHT22;4359;49.358;11.256;2024-02-26T00:17:36;1.80;99.90
8643;DHT22;4359;49.358;11.256;2024-02-26T00:20:05;2.00;99.90
8643;DHT22;4359;49.358;11.256;2024-02-26T00:22:34;2.00;99.90
8643;DHT22;4359;49.358;11.256;2024-02-26T00:25:00;2.00;99.90
8643;DHT22;4359;49.358;11.256;2024-02-26T00:27:25;2.30;99.90
8643;DHT22;4359;49.358;11.256;2024-02-26T00:29:51;2.30;99.90
8643;DHT22;4359;49.358;11.256;2024-02-26T00:32:16;2.40;99.90
8643;DHT22;4359;49.358;11.256;2024-02-26T00:34:42;2.40;99.90
8643;DHT22;4359;49.358;11.256;2024-02-26T00:37:07;2.60;99.90
8643;DHT22;4359;49.358;11.256;2024-02-26T00:39:33;2.70;99.90
8643;DHT22;4359;49.358;11.256;2024-02-26T00:41:59;2.80;99.90
8643;DHT22;4359;49.358;11.256;2024-02-26T00:44:24;2.90;99.90
8643;DHT22;4359;49.358;11.256;2024-02-26T00:46:50;3.20;99.90
8643;DHT22;4359;49.358;11.256;2024-02-26T00:49:15;3.30;99.90
8643;DHT22;4359;49.358;11.256;2024-02-26T00:51:41;3.40;99.90
8643;DHT22;4359;49.358;11.256;2024-02-26T00:54:06;3.40;99.90
8643;DHT22;4359;49.358;11.256;2024-02-26T00:56:32;3.40;99.90
8643;DHT22;4359;49.358;11.256;2024-02-26T00:58:58;3.50;99.90
8643;DHT22;4359;49.358;11.256;2024-02-26T01:01:23;3.60;99.90
8643;DHT22;4359;49.358;11.256;2024-02-26T01:03:49;3.60;99.90
8643;DHT22;4359;49.358;11.256;2024-02-26T01:06:14;3.50;99.90
8643;DHT22;4359;49.358;11.256;2024-02-26T01:08:40;3.40;99.90
8643;DHT22;4359;49.358;11.256;2024-02-26T01:11:05;3.10;99.90
8643;DHT22;4359;49.358;11.256;2024-02-26T01:13:31;2.80;99.90
8643;DHT22;4359;49.358;11.256;2024-02-26T01:15:57;2.70;99.90
8643;DHT22;4359;49.358;11.256;2024-02-26T01:18:22;2.50;99.90
8643;DHT22;4359;49.358;11.256;2024-02-26T01:20:48;2.30;99.90
8643;DHT22;4359;49.358;11.256;2024-02-26T01:23:14;2.10;99.90
8643;DHT22;4359;49.358;11.256;2024-02-26T01:25:39;1.90;99.90
8643;DHT22;4359;49.358;11.256;2024-02-26T01:28:05;2.10;99.90
8643;DHT22;4359;49.358;11.256;2024-02-26T01:30:31;2.30;99.90
8643;DHT22;4359;49.358;11.256;2024-02-26T01:32:57;2.50;99.90
8643;DHT22;4359;49.358;11.256;2024-02-26T01:35:22;2.30;99.90
8643;DHT22;4359;49.358;11.256;2024-02-26T01:37:48;2.00;99.90
8643;DHT22;4359;49.358;11.256;2024-02-26T01:40:14;1.80;99.90
8643;DHT22;4359;49.358;11.256;2024-02-26T01:42:43;1.50;99.90
8643;DHT22;4359;49.358;11.256;2024-02-26T01:45:16;1.30;99.90
8643;DHT22;4359;49.358;11.256;2024-02-26T01:47:49;1.20;99.90
8643;DHT22;4359;49.358;11.256;2024-02-26T01:50:15;1.00;99.90
8643;DHT22;4359;49.358;11.256;2024-02-26T01:52:41;0.90;99.90
8643;DHT22;4359;49.358;11.256;2024-02-26T01:55:07;0.70;99.90
8643;DHT22;4359;49.358;11.256;2024-02-26T01:57:33;0.70;99.90
8643;DHT22;4359;49.358;11.256;2024-02-26T01:59:59;0.70;99.90
8643;DHT22;4359;49.358;11.256;2024-02-26T02:02:25;0.80;99.90
8643;DHT22;4359;49.358;11.256;2024-02-26T02:04:51;1.00;99.90
8643;DHT22;4359;49.358;11.256;2024-02-26T02:07:16;1.10;99.90
8643;DHT22;4359;49.358;11.256;2024-02-26T02:09:43;1.50;99.90
8643;DHT22;4359;49.358;11.256;2024-02-26T02:12:09;1.70;99.90
8643;DHT22;4359;49.358;11.256;2024-02-26T02:14:35;1.90;99.90
8643;DHT22;4359;49.358;11.256;2024-02-26T02:17:00;2.10;99.90
8643;DHT22;4359;49.358;11.256;2024-02-26T02:19:26;2.40;99.90
8643;DHT22;4359;49.358;11.256;2024-02-26T02:21:51;2.50;99.90
8643;DHT22;4359;49.358;11.256;2024-02-26T02:24:17;2.50;99.90
8643;DHT22;4359;49.358;11.256;2024-02-26T02:26:43;2.60;99.90
8643;DHT22;4359;49.358;11.256;2024-02-26T02:29:08;2.80;99.90
8643;DHT22;4359;49.358;11.256;2024-02-26T02:31:35;2.90;99.90
8643;DHT22;4359;49.358;11.256;2024-02-26T02:34:00;3.00;99.90
8643;DHT22;4359;49.358;11.256;2024-02-26T02:36:26;3.10;99.90
8643;DHT22;4359;49.358;11.256;2024-02-26T02:38:52;3.10;99.90
8643;DHT22;4359;49.358;11.256;2024-02-26T02:41:18;3.00;99.90
8643;DHT22;4359;49.358;11.256;2024-02-26T02:43:44;3.00;99.90
8643;DHT22;4359;49.358;11.256;2024-02-26T02:46:09;3.10;99.90
8643;DHT22;4359;49.358;11.256;2024-02-26T02:48:37;3.10;99.90
8643;DHT22;4359;49.358;11.256;2024-02-26T02:51:03;3.10;99.90
8643;DHT22;4359;49.358;11.256;2024-02-26T02:53:28;3.20;99.90
8643;DHT22;4359;49.358;11.256;2024-02-26T02:55:54;3.20;99.90
8643;DHT22;4359;49.358;11.256;2024-02-26T02:58:19;3.10;99.90
8643;DHT22;4359;49.358;11.256;2024-02-26T03:00:45;3.00;99.90
8643;DHT22;4359;49.358;11.256;2024-02-26T03:03:10;2.90;99.90
8643;DHT22;4359;49.358;11.256;2024-02-26T03:05:36;2.70;99.90
8643;DHT22;4359;49.358;11.256;2024-02-26T03:08:02;2.80;99.90
8643;DHT22;4359;49.358;11.256;2024-02-26T03:10:27;2.80;99.90
8643;DHT22;4359;49.358;11.256;2024-02-26T03:12:53;2.70;99.90
8643;DHT22;4359;49.358;11.256;2024-02-26T03:15:19;2.60;99.90
8643;DHT22;4359;49.358;11.256;2024-02-26T03:17:45;2.60;99.90
8643;DHT22;4359;49.358;11.256;2024-02-26T03:20:10;2.70;99.90
8643;DHT22;4359;49.358;11.256;2024-02-26T03:22:38;2.90;99.90
8643;DHT22;4359;49.358;11.256;2024-02-26T03:25:04;3.00;99.90
8643;DHT22;4359;49.358;11.256;2024-02-26T03:27:29;3.20;99.90
8643;DHT22;4359;49.358;11.256;2024-02-26T03:29:55;3.20;99.90
8643;DHT22;4359;49.358;11.256;2024-02-26T03:32:20;3.20;99.90
8643;DHT22;4359;49.358;11.256;2024-02-26T03:34:46;3.30;99.90
8643;DHT22;4359;49.358;11.256;2024-02-26T03:37:12;3.30;99.90
8643;DHT22;4359;49.358;11.256;2024-02-26T03:39:37;3.20;99.90
8643;DHT22;4359;49.358;11.256;2024-02-26T03:42:03;3.10;99.90
8643;DHT22;4359;49.358;11.256;2024-02-26T03:44:29;3.00;99.90
8643;DHT22;4359;49.358;11.256;2024-02-26T03:46:54;2.80;99.90
8643;DHT22;4359;49.358;11.256;2024-02-26T03:49:21;2.60;99.90
8643;DHT22;4359;49.358;11.256;2024-02-26T03:51:47;2.60;99.90
8643;DHT22;4359;49.358;11.256;2024-02-26T03:54:13;2.50;99.90
8643;DHT22;4359;49.358;11.256;2024-02-26T03:56:39;2.40;99.90
8643;DHT22;4359;49.358;11.256;2024-02-26T03:59:05;2.30;99.90
8643;DHT22;4359;49.358;11.256;2024-02-26T04:01:30;2.30;99.90
8643;DHT22;4359;49.358;11.256;2024-02-26T04:03:56;2.40;99.90
8643;DHT22;4359;49.358;11.256;2024-02-26T04:06:21;2.60;99.90
8643;DHT22;4359;49.358;11.256;2024-02-26T04:08:48;2.90;99.90
8643;DHT22;4359;49.358;11.256;2024-02-26T04:11:14;3.10;99.90
8643;DHT22;4359;49.358;11.256;2024-02-26T04:13:46;3.20;99.90
8643;DHT22;4359;49.358;11.256;2024-02-26T04:16:15;3.30;99.90
8643;DHT22;4359;49.358;11.256;2024-02-26T04:18:41;3.40;99.90
8643;DHT22;4359;49.358;11.256;2024-02-26T04:21:07;3.40;99.90
8643;DHT22;4359;49.358;11.256;2024-02-26T04:23:33;3.40;99.90
8643;DHT22;4359;49.358;11.256;2024-02-26T04:25:58;3.30;99.90
8643;DHT22;4359;49.358;11.256;2024-02-26T04:28:24;3.40;99.90
8643;DHT22;4359;49.358;11.256;2024-02-26T04:30:55;3.40;99.90
8643;DHT22;4359;49.358;11.256;2024-02-26T04:33:21;3.50;99.90
8643;DHT22;4359;49.358;11.256;2024-02-26T04:35:46;3.50;99.90
8643;DHT22;4359;49.358;11.256;2024-02-26T04:38:12;3.30;99.90
8643;DHT22;4359;49.358;11.256;2024-02-26T04:40:38;3.20;99.90
8643;DHT22;4359;49.358;11.256;2024-02-26T04:43:03;3.10;99.90
8643;DHT22;4359;49.358;11.256;2024-02-26T04:45:29;3.20;99.90
8643;DHT22;4359;49.358;11.256;2024-02-26T04:47:54;3.20;99.90
8643;DHT22;4359;49.358;11.256;2024-02-26T04:50:20;3.20;99.90
8643;DHT22;4359;49.358;11.256;2024-02-26T04:52:46;3.10;99.90
8643;DHT22;4359;49.358;11.256;2024-02-26T04:55:11;2.90;99.90
8643;DHT22;4359;49.358;11.256;2024-02-26T04:57:37;2.80;99.90
8643;DHT22;4359;49.358;11.256;2024-02-26T05:00:03;2.70;99.90
8643;DHT22;4359;49.358;11.256;2024-02-26T05:02:30;2.60;99.90
8643;DHT22;4359;49.358;11.256;2024-02-26T05:04:57;2.50;99.90
8643;DHT22;4359;49.358;11.256;2024-02-26T05:07:23;2.40;99.90
8643;DHT22;4359;49.358;11.256;2024-02-26T05:09:48;2.40;99.90
8643;DHT22;4359;49.358;11.256;2024-02-26T05:12:15;2.40;99.90
8643;DHT22;4359;49.358;11.256;2024-02-26T05:14:40;2.60;99.90
8643;DHT22;4359;49.358;11.256;2024-02-26T05:17:06;2.80;99.90
8643;DHT22;4359;49.358;11.256;2024-02-26T05:19:32;3.00;99.90
8643;DHT22;4359;49.358;11.256;2024-02-26T05:21:57;3.10;99.90
8643;DHT22;4359;49.358;11.256;2024-02-26T05:24:23;3.20;99.90
8643;DHT22;4359;49.358;11.256;2024-02-26T05:26:48;3.30;99.90
8643;DHT22;4359;49.358;11.256;2024-02-26T05:29:14;3.50;99.90
8643;DHT22;4359;49.358;11.256;2024-02-26T05:31:41;3.50;99.90
8643;DHT22;4359;49.358;11.256;2024-02-26T05:34:07;3.50;99.90
8643;DHT22;4359;49.358;11.256;2024-02-26T05:36:33;3.60;99.90
8643;DHT22;4359;49.358;11.256;2024-02-26T05:39:00;3.60;99.90
8643;DHT22;4359;49.358;11.256;2024-02-26T05:41:25;3.70;99.90
8643;DHT22;4359;49.358;11.256;2024-02-26T05:43:52;3.70;99.90
8643;DHT22;4359;49.358;11.256;2024-02-26T05:46:22;3.80;99.90
8643;DHT22;4359;49.358;11.256;2024-02-26T05:48:52;3.80;99.90
8643;DHT22;4359;49.358;11.256;2024-02-26T05:51:18;3.80;99.90
8643;DHT22;4359;49.358;11.256;2024-02-26T05:53:43;3.90;99.90
8643;DHT22;4359;49.358;11.256;2024-02-26T05:56:09;3.90;99.90
8643;DHT22;4359;49.358;11.256;2024-02-26T05:58:35;3.90;99.90
8643;DHT22;4359;49.358;11.256;2024-02-26T06:01:01;3.90;99.90
8643;DHT22;4359;49.358;11.256;2024-02-26T06:03:26;3.70;99.90
8643;DHT22;4359;49.358;11.256;2024-02-26T06:05:52;3.40;99.90
8643;DHT22;4359;49.358;11.256;2024-02-26T06:08:17;3.30;99.90
8643;DHT22;4359;49.358;11.256;2024-02-26T06:10:43;3.20;99.90
8643;DHT22;4359;49.358;11.256;2024-02-26T06:13:09;3.10;99.90
8643;DHT22;4359;49.358;11.256;2024-02-26T06:15:34;3.10;99.90
8643;DHT22;4359;49.358;11.256;2024-02-26T06:18:00;3.10;99.90
8643;DHT22;4359;49.358;11.256;2024-02-26T06:20:25;3.00;99.90
8643;DHT22;4359;49.358;11.256;2024-02-26T06:22:51;3.00;99.90
8643;DHT22;4359;49.358;11.256;2024-02-26T06:25:17;2.90;99.90
8643;DHT22;4359;49.358;11.256;2024-02-26T06:27:42;2.80;99.90
8643;DHT22;4359;49.358;11.256;2024-02-26T06:30:08;2.90;99.90
8643;DHT22;4359;49.358;11.256;2024-02-26T06:32:36;2.90;99.90
8643;DHT22;4359;49.358;11.256;2024-02-26T06:35:02;3.10;99.90
8643;DHT22;4359;49.358;11.256;2024-02-26T06:37:32;3.40;99.90
8643;DHT22;4359;49.358;11.256;2024-02-26T06:39:59;3.70;99.90
8643;DHT22;4359;49.358;11.256;2024-02-26T06:42:25;3.70;99.90
8643;DHT22;4359;49.358;11.256;2024-02-26T06:44:50;3.70;99.90
8643;DHT22;4359;49.358;11.256;2024-02-26T06:47:16;3.80;99.90
8643;DHT22;4359;49.358;11.256;2024-02-26T06:49:42;3.80;99.90
8643;DHT22;4359;49.358;11.256;2024-02-26T06:52:08;3.90;99.90
8643;DHT22;4359;49.358;11.256;2024-02-26T06:54:34;4.00;99.90
8643;DHT22;4359;49.358;11.256;2024-02-26T06:57:00;4.10;99.90
8643;DHT22;4359;49.358;11.256;2024-02-26T06:59:25;4.30;99.90
8643;DHT22;4359;49.358;11.256;2024-02-26T07:01:51;4.30;99.90
8643;DHT22;4359;49.358;11.256;2024-02-26T07:04:16;4.40;99.90
8643;DHT22;4359;49.358;11.256;2024-02-26T07:06:42;4.30;99.90
8643;DHT22;4359;49.358;11.256;2024-02-26T07:09:09;4.40;99.90
8643;DHT22;4359;49.358;11.256;2024-02-26T07:11:34;4.50;99.90
8643;DHT22;4359;49.358;11.256;2024-02-26T07:14:00;4.60;99.90
8643;DHT22;4359;49.358;11.256;2024-02-26T07:16:26;4.70;99.90
8643;DHT22;4359;49.358;11.256;2024-02-26T07:18:52;4.70;99.90
8643;DHT22;4359;49.358;11.256;2024-02-26T07:21:18;4.70;99.90
8643;DHT22;4359;49.358;11.256;2024-02-26T07:23:43;4.80;99.90
8643;DHT22;4359;49.358;11.256;2024-02-26T07:26:09;4.80;99.90
8643;DHT22;4359;49.358;11.256;2024-02-26T07:28:37;4.80;99.90
8643;DHT22;4359;49.358;11.256;2024-02-26T07:31:03;4.80;99.90
8643;DHT22;4359;49.358;11.256;2024-02-26T07:33:29;4.80;99.90
8643;DHT22;4359;49.358;11.256;2024-02-26T07:35:54;4.90;99.90
8643;DHT22;4359;49.358;11.256;2024-02-26T07:38:20;5.00;99.90
8643;DHT22;4359;49.358;11.256;2024-02-26T07:40:46;5.00;99.90
8643;DHT22;4359;49.358;11.256;2024-02-26T07:43:12;5.00;99.90
8643;DHT22;4359;49.358;11.256;2024-02-26T07:45:37;5.00;99.90
8643;DHT22;4359;49.358;11.256;2024-02-26T07:48:03;4.90;99.90
8643;DHT22;4359;49.358;11.256;2024-02-26T07:50:29;5.00;99.90
8643;DHT22;4359;49.358;11.256;2024-02-26T07:52:54;5.00;99.90
8643;DHT22;4359;49.358;11.256;2024-02-26T07:55:20;5.20;99.90
8643;DHT22;4359;49.358;11.256;2024-02-26T07:57:46;5.40;99.90
8643;DHT22;4359;49.358;11.256;2024-02-26T08:00:11;5.50;99.90
8643;DHT22;4359;49.358;11.256;2024-02-26T08:02:42;5.60;99.90
8643;DHT22;4359;49.358;11.256;2024-02-26T08:05:07;5.80;99.90
8643;DHT22;4359;49.358;11.256;2024-02-26T08:07:33;6.00;99.90
8643;DHT22;4359;49.358;11.256;2024-02-26T08:09:58;6.10;99.90
8643;DHT22;4359;49.358;11.256;2024-02-26T08:12:24;6.20;99.90
8643;DHT22;4359;49.358;11.256;2024-02-26T08:14:50;6.30;99.90
8643;DHT22;4359;49.358;11.256;2024-02-26T08:17:15;6.30;99.90
8643;DHT22;4359;49.358;11.256;2024-02-26T08:19:41;6.30;99.90
8643;DHT22;4359;49.358;11.256;2024-02-26T08:22:07;6.40;99.90
8643;DHT22;4359;49.358;11.256;2024-02-26T08:24:32;6.30;99.90
8643;DHT22;4359;49.358;11.256;2024-02-26T08:26:58;6.30;99.90
8643;DHT22;4359;49.358;11.256;2024-02-26T08:29:23;6.30;99.90
8643;DHT22;4359;49.358;11.256;2024-02-26T08:31:49;6.30;99.90
8643;DHT22;4359;49.358;11.256;2024-02-26T08:34:15;6.30;99.90
8643;DHT22;4359;49.358;11.256;2024-02-26T08:36:41;6.30;99.90
8643;DHT22;4359;49.358;11.256;2024-02-26T08:39:08;6.30;99.90
8643;DHT22;4359;49.358;11.256;2024-02-26T08:41:34;6.30;99.90
8643;DHT22;4359;49.358;11.256;2024-02-26T08:43:59;6.30;99.90
8643;DHT22;4359;49.358;11.256;2024-02-26T08:46:25;6.40;99.90
8643;DHT22;4359;49.358;11.256;2024-02-26T08:48:51;6.50;99.90
8643;DHT22;4359;49.358;11.256;2024-02-26T08:51:16;6.70;99.90
8643;DHT22;4359;49.358;11.256;2024-02-26T08:53:42;6.90;99.90
8643;DHT22;4359;49.358;11.256;2024-02-26T08:56:07;7.10;99.90
8643;DHT22;4359;49.358;11.256;2024-02-26T08:58:33;7.20;99.90
8643;DHT22;4359;49.358;11.256;2024-02-26T09:00:59;7.30;99.90
8643;DHT22;4359;49.358;11.256;2024-02-26T09:03:24;7.50;99.90
8643;DHT22;4359;49.358;11.256;2024-02-26T09:05:51;7.40;99.90
8643;DHT22;4359;49.358;11.256;2024-02-26T09:08:17;7.40;99.90
8643;DHT22;4359;49.358;11.256;2024-02-26T09:10:42;7.70;99.90
8643;DHT22;4359;49.358;11.256;2024-02-26T09:13:08;7.80;99.90
8643;DHT22;4359;49.358;11.256;2024-02-26T09:15:34;7.80;99.90
8643;DHT22;4359;49.358;11.256;2024-02-26T09:17:59;7.90;99.90
8643;DHT22;4359;49.358;11.256;2024-02-26T09:20:25;7.90;99.90
8643;DHT22;4359;49.358;11.256;2024-02-26T09:22:51;8.00;99.90
8643;DHT22;4359;49.358;11.256;2024-02-26T09:25:19;8.00;99.90
8643;DHT22;4359;49.358;11.256;2024-02-26T09:27:46;8.10;99.90
8643;DHT22;4359;49.358;11.256;2024-02-26T09:30:12;8.10;99.90
8643;DHT22;4359;49.358;11.256;2024-02-26T09:32:39;8.20;99.90
8643;DHT22;4359;49.358;11.256;2024-02-26T09:35:05;8.50;99.90
8643;DHT22;4359;49.358;11.256;2024-02-26T09:37:31;8.60;99.90
8643;DHT22;4359;49.358;11.256;2024-02-26T09:39:57;8.90;99.90
8643;DHT22;4359;49.358;11.256;2024-02-26T09:42:25;9.30;99.90
8643;DHT22;4359;49.358;11.256;2024-02-26T09:44:54;9.50;99.90
8643;DHT22;4359;49.358;11.256;2024-02-26T09:47:23;9.70;99.90
8643;DHT22;4359;49.358;11.256;2024-02-26T09:49:52;9.80;99.90
8643;DHT22;4359;49.358;11.256;2024-02-26T09:52:19;9.80;99.90
8643;DHT22;4359;49.358;11.256;2024-02-26T09:54:48;9.70;99.90
8643;DHT22;4359;49.358;11.256;2024-02-26T09:57:15;9.30;99.90
8643;DHT22;4359;49.358;11.256;2024-02-26T09:59:43;9.40;99.90
8643;DHT22;4359;49.358;11.256;2024-02-26T10:02:13;9.40;99.90
8643;DHT22;4359;49.358;11.256;2024-02-26T10:04:42;9.40;99.90
8643;DHT22;4359;49.358;11.256;2024-02-26T10:07:12;9.30;99.90
8643;DHT22;4359;49.358;11.256;2024-02-26T10:09:40;9.30;99.90
8643;DHT22;4359;49.358;11.256;2024-02-26T10:12:09;9.00;99.90
8643;DHT22;4359;49.358;11.256;2024-02-26T10:14:35;8.90;99.90
8643;DHT22;4359;49.358;11.256;2024-02-26T10:17:02;9.00;99.90
8643;DHT22;4359;49.358;11.256;2024-02-26T10:19:29;9.20;99.90
8643;DHT22;4359;49.358;11.256;2024-02-26T10:21:59;9.20;99.90
8643;DHT22;4359;49.358;11.256;2024-02-26T10:24:26;9.40;99.90
8643;DHT22;4359;49.358;11.256;2024-02-26T10:26:53;9.60;99.90
8643;DHT22;4359;49.358;11.256;2024-02-26T10:29:19;9.90;99.90
8643;DHT22;4359;49.358;11.256;2024-02-26T10:31:45;10.20;99.90
8643;DHT22;4359;49.358;11.256;2024-02-26T10:34:11;10.40;99.90
8643;DHT22;4359;49.358;11.256;2024-02-26T10:36:37;10.50;99.90
8643;DHT22;4359;49.358;11.256;2024-02-26T10:39:05;10.70;99.90
8643;DHT22;4359;49.358;11.256;2024-02-26T10:41:33;10.90;99.90
8643;DHT22;4359;49.358;11.256;2024-02-26T10:43:58;10.90;99.90
8643;DHT22;4359;49.358;11.256;2024-02-26T10:46:25;11.10;99.90
8643;DHT22;4359;49.358;11.256;2024-02-26T10:48:52;11.10;99.90
8643;DHT22;4359;49.358;11.256;2024-02-26T10:51:22;11.10;99.90
8643;DHT22;4359;49.358;11.256;2024-02-26T10:53:51;11.10;99.90
8643;DHT22;4359;49.358;11.256;2024-02-26T10:56:24;11.10;99.90
8643;DHT22;4359;49.358;11.256;2024-02-26T10:58:52;11.40;99.90
8643;DHT22;4359;49.358;11.256;2024-02-26T11:01:19;11.70;99.90
8643;DHT22;4359;49.358;11.256;2024-02-26T11:03:50;11.80;99.90
8643;DHT22;4359;49.358;11.256;2024-02-26T11:06:16;11.80;99.90
8643;DHT22;4359;49.358;11.256;2024-02-26T11:08:43;11.90;99.90
8643;DHT22;4359;49.358;11.256;2024-02-26T11:11:09;11.90;99.90
8643;DHT22;4359;49.358;11.256;2024-02-26T11:13:39;12.00;99.90
8643;DHT22;4359;49.358;11.256;2024-02-26T11:16:06;12.10;99.90
8643;DHT22;4359;49.358;11.256;2024-02-26T11:18:34;12.20;99.90
8643;DHT22;4359;49.358;11.256;2024-02-26T11:21:01;12.30;99.90
8643;DHT22;4359;49.358;11.256;2024-02-26T11:23:26;12.50;99.90
8643;DHT22;4359;49.358;11.256;2024-02-26T11:25:55;12.70;99.90
8643;DHT22;4359;49.358;11.256;2024-02-26T11:28:23;12.60;99.90
8643;DHT22;4359;49.358;11.256;2024-02-26T11:30:50;12.20;99.90
8643;DHT22;4359;49.358;11.256;2024-02-26T11:33:17;12.00;99.90
8643;DHT22;4359;49.358;11.256;2024-02-26T11:35:44;12.00;99.90
8643;DHT22;4359;49.358;11.256;2024-02-26T11:38:20;12.10;99.90
8643;DHT22;4359;49.358;11.256;2024-02-26T11:40:47;12.20;99.90
8643;DHT22;4359;49.358;11.256;2024-02-26T11:43:13;12.50;99.90
8643;DHT22;4359;49.358;11.256;2024-02-26T11:48:20;12.80;99.90
8643;DHT22;4359;49.358;11.256;2024-02-26T11:50:48;12.50;99.90
8643;DHT22;4359;49.358;11.256;2024-02-26T11:53:26;12.70;99.90
8643;DHT22;4359;49.358;11.256;2024-02-26T11:58:42;13.10;99.90
8643;DHT22;4359;49.358;11.256;2024-02-26T12:04:27;13.20;99.90
8643;DHT22;4359;49.358;11.256;2024-02-26T12:06:57;13.30;99.90
8643;DHT22;4359;49.358;11.256;2024-02-26T12:09:38;13.30;99.90
8643;DHT22;4359;49.358;11.256;2024-02-26T12:12:09;13.30;99.90
8643;DHT22;4359;49.358;11.256;2024-02-26T12:14:55;13.60;99.90
8643;DHT22;4359;49.358;11.256;2024-02-26T12:17:22;13.80;99.90
8643;DHT22;4359;49.358;11.256;2024-02-26T12:19:49;14.00;99.90
8643;DHT22;4359;49.358;11.256;2024-02-26T12:22:16;13.90;99.90
8643;DHT22;4359;49.358;11.256;2024-02-26T12:24:45;13.40;99.90
8643;DHT22;4359;49.358;11.256;2024-02-26T12:27:11;12.70;99.90
8643;DHT22;4359;49.358;11.256;2024-02-26T12:29:37;12.40;99.90
8643;DHT22;4359;49.358;11.256;2024-02-26T12:32:04;12.80;99.90
8643;DHT22;4359;49.358;11.256;2024-02-26T12:34:31;13.20;99.90
8643;DHT22;4359;49.358;11.256;2024-02-26T12:36:57;13.10;99.90
8643;DHT22;4359;49.358;11.256;2024-02-26T12:39:23;12.90;99.90
8643;DHT22;4359;49.358;11.256;2024-02-26T12:41:49;12.60;99.90
8643;DHT22;4359;49.358;11.256;2024-02-26T12:44:18;12.40;99.90
8643;DHT22;4359;49.358;11.256;2024-02-26T12:46:44;12.40;99.90
8643;DHT22;4359;49.358;11.256;2024-02-26T12:49:14;12.60;99.90
8643;DHT22;4359;49.358;11.256;2024-02-26T12:51:40;12.90;99.90
8643;DHT22;4359;49.358;11.256;2024-02-26T12:54:07;13.20;99.90
8643;DHT22;4359;49.358;11.256;2024-02-26T12:56:34;13.20;99.90
8643;DHT22;4359;49.358;11.256;2024-02-26T12:59:00;13.50;99.90
8643;DHT22;4359;49.358;11.256;2024-02-26T13:01:26;13.90;99.90
8643;DHT22;4359;49.358;11.256;2024-02-26T13:03:53;13.90;99.90
8643;DHT22;4359;49.358;11.256;2024-02-26T13:06:19;14.00;99.90
8643;DHT22;4359;49.358;11.256;2024-02-26T13:08:47;13.70;99.90
8643;DHT22;4359;49.358;11.256;2024-02-26T13:34:47;14.00;99.90
8643;DHT22;4359;49.358;11.256;2024-02-26T13:37:13;13.60;99.90
8643;DHT22;4359;49.358;11.256;2024-02-26T13:39:39;13.30;99.90
8643;DHT22;4359;49.358;11.256;2024-02-26T13:42:07;13.20;99.90
8643;DHT22;4359;49.358;11.256;2024-02-26T13:44:33;13.20;99.90
8643;DHT22;4359;49.358;11.256;2024-02-26T13:47:02;13.00;99.90
8643;DHT22;4359;49.358;11.256;2024-02-26T13:49:27;13.00;99.90
8643;DHT22;4359;49.358;11.256;2024-02-26T13:51:53;12.90;99.90
8643;DHT22;4359;49.358;11.256;2024-02-26T13:54:18;12.80;99.90
8643;DHT22;4359;49.358;11.256;2024-02-26T13:56:44;12.60;99.90
8643;DHT22;4359;49.358;11.256;2024-02-26T13:59:10;12.50;99.90
8643;DHT22;4359;49.358;11.256;2024-02-26T14:01:35;12.30;99.90
8643;DHT22;4359;49.358;11.256;2024-02-26T14:04:01;12.20;99.90
8643;DHT22;4359;49.358;11.256;2024-02-26T14:06:27;12.30;99.90
8643;DHT22;4359;49.358;11.256;2024-02-26T14:08:53;12.20;99.90
8643;DHT22;4359;49.358;11.256;2024-02-26T14:11:19;12.20;99.90
8643;DHT22;4359;49.358;11.256;2024-02-26T14:13:44;12.20;99.90
8643;DHT22;4359;49.358;11.256;2024-02-26T14:16:12;12.10;99.90
8643;DHT22;4359;49.358;11.256;2024-02-26T14:18:39;12.10;99.90
8643;DHT22;4359;49.358;11.256;2024-02-26T14:21:04;12.10;99.90
8643;DHT22;4359;49.358;11.256;2024-02-26T14:23:30;12.10;99.90
8643;DHT22;4359;49.358;11.256;2024-02-26T14:25:56;12.10;99.90
8643;DHT22;4359;49.358;11.256;2024-02-26T14:28:21;12.20;99.90
8643;DHT22;4359;49.358;11.256;2024-02-26T14:30:47;12.10;99.90
8643;DHT22;4359;49.358;11.256;2024-02-26T14:33:12;12.10;99.90
8643;DHT22;4359;49.358;11.256;2024-02-26T14:35:38;12.00;99.90
8643;DHT22;4359;49.358;11.256;2024-02-26T14:38:04;12.00;99.90
8643;DHT22;4359;49.358;11.256;2024-02-26T14:40:29;11.90;99.90
8643;DHT22;4359;49.358;11.256;2024-02-26T14:42:55;11.90;99.90
8643;DHT22;4359;49.358;11.256;2024-02-26T14:45:23;11.80;99.90
8643;DHT22;4359;49.358;11.256;2024-02-26T14:47:48;11.80;99.90
8643;DHT22;4359;49.358;11.256;2024-02-26T14:50:14;11.80;99.90
8643;DHT22;4359;49.358;11.256;2024-02-26T14:52:40;11.70;99.90
8643;DHT22;4359;49.358;11.256;2024-02-26T14:55:06;11.70;99.90
8643;DHT22;4359;49.358;11.256;2024-02-26T14:57:32;11.60;99.90
8643;DHT22;4359;49.358;11.256;2024-02-26T14:59:58;11.60;99.90
8643;DHT22;4359;49.358;11.256;2024-02-26T15:02:23;11.50;99.90
8643;DHT22;4359;49.358;11.256;2024-02-26T15:04:49;11.40;99.90
8643;DHT22;4359;49.358;11.256;2024-02-26T15:07:15;11.40;99.90
8643;DHT22;4359;49.358;11.256;2024-02-26T15:09:40;11.40;99.90
8643;DHT22;4359;49.358;11.256;2024-02-26T15:12:06;11.20;99.90
8643;DHT22;4359;49.358;11.256;2024-02-26T15:14:33;11.10;99.90
8643;DHT22;4359;49.358;11.256;2024-02-26T15:16:59;11.10;99.90
8643;DHT22;4359;49.358;11.256;2024-02-26T15:19:24;11.20;99.90
8643;DHT22;4359;49.358;11.256;2024-02-26T15:21:50;11.20;99.90
8643;DHT22;4359;49.358;11.256;2024-02-26T15:24:16;11.10;99.90
8643;DHT22;4359;49.358;11.256;2024-02-26T15:26:43;11.10;99.90
8643;DHT22;4359;49.358;11.256;2024-02-26T15:29:09;11.00;99.90
8643;DHT22;4359;49.358;11.256;2024-02-26T15:31:35;11.00;99.90
8643;DHT22;4359;49.358;11.256;2024-02-26T15:34:02;11.00;99.90
8643;DHT22;4359;49.358;11.256;2024-02-26T15:36:27;10.90;99.90
8643;DHT22;4359;49.358;11.256;2024-02-26T15:38:53;10.80;99.90
8643;DHT22;4359;49.358;11.256;2024-02-26T15:41:19;10.80;99.90
8643;DHT22;4359;49.358;11.256;2024-02-26T15:43:44;10.70;99.90
8643;DHT22;4359;49.358;11.256;2024-02-26T15:46:10;10.60;99.90
8643;DHT22;4359;49.358;11.256;2024-02-26T15:48:39;10.50;99.90
8643;DHT22;4359;49.358;11.256;2024-02-26T15:51:04;10.50;99.90
8643;DHT22;4359;49.358;11.256;2024-02-26T15:53:30;10.40;99.90
8643;DHT22;4359;49.358;11.256;2024-02-26T15:55:56;10.30;99.90
8643;DHT22;4359;49.358;11.256;2024-02-26T15:58:21;10.40;99.90
8643;DHT22;4359;49.358;11.256;2024-02-26T16:00:49;10.20;99.90
8643;DHT22;4359;49.358;11.256;2024-02-26T16:03:16;10.20;99.90
8643;DHT22;4359;49.358;11.256;2024-02-26T16:05:41;10.20;99.90
8643;DHT22;4359;49.358;11.256;2024-02-26T16:08:19;10.00;99.90
8643;DHT22;4359;49.358;11.256;2024-02-26T16:10:46;9.90;99.90
8643;DHT22;4359;49.358;11.256;2024-02-26T16:13:12;9.90;99.90
8643;DHT22;4359;49.358;11.256;2024-02-26T16:15:42;9.90;99.90
8643;DHT22;4359;49.358;11.256;2024-02-26T16:18:08;9.80;99.90
8643;DHT22;4359;49.358;11.256;2024-02-26T16:20:34;9.80;99.90
8643;DHT22;4359;49.358;11.256;2024-02-26T16:23:00;9.70;99.90